createdAt,value
2018-10-05T00:00:14.212Z,5.40
2018-10-05T00:04:19.656Z,5.40
2018-10-05T00:08:24.703Z,5.30
2018-10-05T00:12:30.101Z,5.40
2018-10-05T00:16:35.547Z,5.40
2018-10-05T00:20:41.375Z,5.30
2018-10-05T00:24:47.139Z,5.20
2018-10-05T00:28:51.729Z,5.20
2018-10-05T00:32:56.058Z,5.20
2018-10-05T00:37:01.482Z,5.20
2018-10-05T00:41:06.737Z,5.10
2018-10-05T00:45:13.140Z,5.10
2018-10-05T00:49:18.224Z,5.00
2018-10-05T00:53:23.848Z,5.00
2018-10-05T00:57:28.265Z,5.00
2018-10-05T01:01:34.341Z,4.90
2018-10-05T01:05:39.808Z,4.90
2018-10-05T01:09:45.554Z,4.80
2018-10-05T01:13:51.202Z,4.90
2018-10-05T01:17:56.093Z,4.90
2018-10-05T01:22:01.609Z,4.80
2018-10-05T01:26:07.218Z,4.70
2018-10-05T01:30:13.231Z,4.70
2018-10-05T01:34:18.540Z,4.90
2018-10-05T01:38:24.302Z,4.80
2018-10-05T01:42:29.598Z,4.70
2018-10-05T01:46:36.855Z,4.60
2018-10-05T01:50:41.759Z,4.60
2018-10-05T01:54:46.445Z,4.50
2018-10-05T01:58:52.340Z,4.60
2018-10-05T02:02:57.599Z,4.50
2018-10-05T02:07:04.012Z,4.50
2018-10-05T02:11:10.102Z,4.40
2018-10-05T02:15:14.800Z,4.30
2018-10-05T02:19:21.816Z,4.30
2018-10-05T02:23:26.445Z,4.30
2018-10-05T02:27:31.450Z,4.30
2018-10-05T02:31:37.523Z,4.20
2018-10-05T02:35:41.824Z,4.20
2018-10-05T02:39:47.242Z,4.20
2018-10-05T02:43:52.871Z,4.20
2018-10-05T02:47:58.642Z,4.20
2018-10-05T02:52:04.001Z,4.20
2018-10-05T02:56:10.152Z,4.20
2018-10-05T03:00:25.675Z,4.10
2018-10-05T03:04:33.192Z,4.10
2018-10-05T03:08:39.101Z,4.10
2018-10-05T03:12:43.473Z,4.10
2018-10-05T03:16:49.530Z,4.10
2018-10-05T03:20:55.642Z,4.00
2018-10-05T03:24:59.997Z,4.00
2018-10-05T03:29:05.364Z,4.00
2018-10-05T03:33:10.745Z,4.00
2018-10-05T03:37:16.534Z,3.90
2018-10-05T03:41:21.900Z,3.90
2018-10-05T03:45:26.288Z,3.80
2018-10-05T03:49:33.379Z,3.80
2018-10-05T03:53:39.694Z,3.90
2018-10-05T03:57:44.246Z,3.80
2018-10-05T04:01:50.238Z,3.80
2018-10-05T04:05:54.990Z,3.80
2018-10-05T04:10:01.174Z,3.80
2018-10-05T04:14:06.685Z,3.80
2018-10-05T04:18:12.343Z,3.80
2018-10-05T04:22:21.381Z,3.70
2018-10-05T04:26:26.949Z,3.70
2018-10-05T04:30:32.544Z,3.70
2018-10-05T04:34:38.481Z,3.70
2018-10-05T04:38:44.439Z,3.60
2018-10-05T04:42:49.784Z,3.60
2018-10-05T04:46:54.617Z,3.60
2018-10-05T04:51:00.064Z,3.60
2018-10-05T04:55:06.223Z,3.60
2018-10-05T04:59:14.205Z,3.50
2018-10-05T05:03:19.454Z,3.50
2018-10-05T05:07:25.209Z,3.60
2018-10-05T05:12:08.812Z,3.60
2018-10-05T05:25:11.483Z,3.60
2018-10-05T05:29:17.201Z,3.50
2018-10-05T05:33:22.252Z,3.60
2018-10-05T05:37:29.242Z,3.70
2018-10-05T05:41:34.827Z,3.90
2018-10-05T05:45:41.376Z,3.90
2018-10-05T05:49:48.709Z,3.90
2018-10-05T05:53:54.661Z,3.90
2018-10-05T06:38:06.026Z,4.80
2018-10-05T06:42:11.477Z,5.00
2018-10-05T06:46:15.817Z,5.10
2018-10-05T06:50:20.400Z,5.30
2018-10-05T06:54:26.121Z,5.40
2018-10-05T06:58:30.505Z,5.60
2018-10-05T07:02:34.761Z,5.80
2018-10-05T07:06:39.056Z,6.10
2018-10-05T07:10:43.633Z,6.30
2018-10-05T07:14:48.217Z,6.60
2018-10-05T07:18:52.569Z,6.80
2018-10-05T07:22:56.832Z,7.30
2018-10-05T07:27:01.079Z,7.80
2018-10-05T07:31:05.328Z,8.20
2018-10-05T07:35:09.600Z,8.70
2018-10-05T07:39:13.809Z,9.00
2018-10-05T07:43:18.151Z,9.30
2018-10-05T07:47:22.379Z,9.70
2018-10-05T07:51:26.621Z,10.00
2018-10-05T07:55:30.990Z,10.30
2018-10-05T07:59:35.253Z,10.50
2018-10-05T08:03:39.598Z,10.80
2018-10-05T08:07:43.852Z,11.00
2018-10-05T08:11:49.138Z,11.30
2018-10-05T08:15:53.579Z,11.70
2018-10-05T08:19:58.020Z,11.90
2018-10-05T08:24:02.356Z,12.30
2018-10-05T08:28:07.930Z,12.70
2018-10-05T08:32:12.162Z,12.90
2018-10-05T08:36:16.620Z,13.30
2018-10-05T08:40:20.883Z,13.60
2018-10-05T08:44:25.513Z,14.10
2018-10-05T08:48:29.750Z,14.70
2018-10-05T08:52:34.156Z,15.30
2018-10-05T08:56:38.429Z,15.40
2018-10-05T09:00:42.909Z,15.40
2018-10-05T09:04:47.476Z,15.40
2018-10-05T09:08:51.776Z,15.20
2018-10-05T09:12:56.127Z,14.80
2018-10-05T09:17:00.341Z,14.70
2018-10-05T09:21:04.730Z,14.70
2018-10-05T09:25:08.995Z,14.80
2018-10-05T09:29:13.363Z,15.00
2018-10-05T09:33:17.706Z,15.00
2018-10-05T09:37:22.028Z,15.20
2018-10-05T09:41:26.305Z,15.50
2018-10-05T09:45:30.654Z,16.00
2018-10-05T09:49:35.003Z,16.50
2018-10-05T09:53:39.920Z,17.00
2018-10-05T09:57:44.228Z,17.20
2018-10-05T10:01:56.675Z,16.90
2018-10-05T10:06:01.260Z,16.70
2018-10-05T10:10:05.587Z,16.60
2018-10-05T10:14:09.928Z,16.60
2018-10-05T10:18:14.232Z,16.50
2018-10-05T10:22:18.537Z,16.70
2018-10-05T10:26:22.971Z,16.90
2018-10-05T10:30:27.175Z,18.00
2018-10-05T10:34:31.718Z,18.90
2018-10-05T10:38:35.908Z,19.30
2018-10-05T10:42:40.590Z,19.50
2018-10-05T10:46:44.945Z,20.70
2018-10-05T10:50:49.476Z,20.30
2018-10-05T10:54:53.966Z,21.50
2018-10-05T10:58:58.344Z,22.00
2018-10-05T11:03:04.061Z,22.10
2018-10-05T11:07:08.410Z,23.10
2018-10-05T11:11:12.734Z,23.70
2018-10-05T11:15:17.015Z,24.50
2018-10-05T11:19:21.445Z,24.90
2018-10-05T11:23:25.873Z,24.40
2018-10-05T11:27:30.222Z,25.00
2018-10-05T11:31:34.547Z,24.10
2018-10-05T11:35:38.914Z,24.60
2018-10-05T11:39:43.266Z,26.60
2018-10-05T11:43:47.546Z,26.00
2018-10-05T11:47:51.813Z,25.40
2018-10-05T11:51:56.097Z,26.30
2018-10-05T11:56:00.392Z,26.80
2018-10-05T12:00:04.687Z,27.20
2018-10-05T12:04:09.064Z,26.60
2018-10-05T12:08:13.301Z,26.20
2018-10-05T12:12:17.698Z,26.30
2018-10-05T12:16:23.124Z,25.90
2018-10-05T12:20:27.497Z,26.20
2018-10-05T12:24:31.692Z,26.60
2018-10-05T12:28:36.018Z,26.80
2018-10-05T12:32:40.270Z,28.20
2018-10-05T12:36:44.606Z,28.90
2018-10-05T12:40:48.865Z,28.80
2018-10-05T12:44:53.151Z,29.10
2018-10-05T12:48:57.468Z,28.60
2018-10-05T12:53:01.789Z,27.00
2018-10-05T12:57:06.077Z,28.70
2018-10-05T13:01:10.400Z,29.40
2018-10-05T13:05:14.733Z,27.90
2018-10-05T13:09:19.010Z,29.00
2018-10-05T13:13:23.408Z,30.00
2018-10-05T13:17:27.768Z,29.30
2018-10-05T13:21:33.152Z,28.90
2018-10-05T13:25:38.081Z,28.70
2018-10-05T13:29:42.292Z,27.20
2018-10-05T13:33:46.593Z,28.40
2018-10-05T13:37:51.045Z,29.40
2018-10-05T13:41:55.358Z,29.90
2018-10-05T13:45:59.709Z,28.50
2018-10-05T13:50:04.081Z,28.10
2018-10-05T13:54:08.437Z,27.90
2018-10-05T13:58:12.699Z,28.50
2018-10-05T14:02:22.720Z,28.40
2018-10-05T14:06:27.412Z,28.00
2018-10-05T14:10:31.879Z,27.90
2018-10-05T14:14:36.339Z,27.40
2018-10-05T14:18:40.572Z,26.90
2018-10-05T14:22:44.820Z,25.20
2018-10-05T14:26:50.369Z,22.70
2018-10-05T14:30:54.715Z,20.90
2018-10-05T14:34:59.083Z,19.30
2018-10-05T14:39:03.652Z,18.70
2018-10-05T14:43:08.163Z,17.90
2018-10-05T14:47:12.458Z,17.50
2018-10-05T14:51:16.799Z,17.30
2018-10-05T14:55:21.476Z,17.30
2018-10-05T14:59:26.017Z,17.10
2018-10-05T15:03:30.307Z,16.90
2018-10-05T15:07:36.681Z,16.70
2018-10-05T15:11:40.946Z,16.60
2018-10-05T15:15:45.586Z,16.30
2018-10-05T15:20:05.907Z,15.80
2018-10-05T15:24:10.139Z,15.60
2018-10-05T15:28:14.579Z,15.30
2018-10-05T15:32:19.241Z,15.20
2018-10-05T15:36:25.207Z,15.10
2018-10-05T15:40:30.529Z,14.70
2018-10-05T15:44:35.096Z,14.50
2018-10-05T15:48:39.445Z,14.30
2018-10-05T15:52:43.773Z,14.00
2018-10-05T15:56:48.139Z,13.80
2018-10-05T16:00:52.529Z,13.60
2018-10-05T16:04:56.784Z,13.30
2018-10-05T16:09:01.092Z,13.40
2018-10-05T16:13:05.422Z,13.30
2018-10-05T16:17:09.754Z,13.30
2018-10-05T16:21:13.992Z,13.00
2018-10-05T16:25:18.277Z,12.90
2018-10-05T16:29:22.514Z,12.70
2018-10-05T16:33:26.864Z,12.40
2018-10-05T16:37:31.261Z,12.20
2018-10-05T16:41:35.600Z,12.00
2018-10-05T16:45:39.795Z,11.80
2018-10-05T16:49:44.073Z,11.60
2018-10-05T16:53:48.422Z,11.50
2018-10-05T16:57:52.908Z,11.20
2018-10-05T17:01:57.158Z,11.10
2018-10-05T17:06:01.608Z,11.00
2018-10-05T17:10:05.896Z,10.60
2018-10-05T17:14:10.558Z,10.40
2018-10-05T17:18:14.923Z,10.20
2018-10-05T17:22:20.571Z,10.10
2018-10-05T17:26:25.091Z,9.90
2018-10-05T17:30:29.372Z,9.80
2018-10-05T17:34:34.197Z,9.70
2018-10-05T17:38:38.441Z,9.60
2018-10-05T17:42:43.044Z,9.50
2018-10-05T17:46:47.298Z,9.40
2018-10-05T17:50:51.588Z,9.40
2018-10-05T17:54:56.043Z,9.30
2018-10-05T17:59:00.413Z,9.30
2018-10-05T18:03:05.170Z,9.20
2018-10-05T18:07:09.481Z,9.10
2018-10-05T18:11:13.859Z,9.00
2018-10-05T18:15:18.514Z,9.00
2018-10-05T18:19:23.207Z,8.80
2018-10-05T18:23:27.390Z,8.80
2018-10-05T18:27:32.687Z,8.70
2018-10-05T18:31:37.388Z,8.70
2018-10-05T18:35:42.279Z,8.60
2018-10-05T18:39:47.113Z,8.60
2018-10-05T18:43:51.816Z,8.50
2018-10-05T18:47:56.585Z,8.40
2018-10-05T18:52:01.523Z,8.40
2018-10-05T18:56:17.179Z,8.30
2018-10-05T19:00:25.929Z,8.30
2018-10-05T19:04:30.320Z,8.20
2018-10-05T19:08:34.990Z,8.10
2018-10-05T19:12:40.059Z,8.10
2018-10-05T19:16:44.660Z,8.00
2018-10-05T19:20:49.190Z,8.00
2018-10-05T19:24:53.688Z,7.90
2018-10-05T19:28:58.284Z,7.90
2018-10-05T19:33:02.799Z,7.80
2018-10-05T19:37:07.393Z,7.70
2018-10-05T19:41:13.023Z,7.70
2018-10-05T19:45:17.288Z,7.60
2018-10-05T19:49:21.597Z,7.60
2018-10-05T19:53:26.049Z,7.50
2018-10-05T19:57:30.539Z,7.50
2018-10-05T20:01:35.084Z,7.40
2018-10-05T20:05:39.376Z,7.30
2018-10-05T20:09:46.696Z,7.30
2018-10-05T20:13:51.916Z,7.30
2018-10-05T20:17:56.501Z,7.20
2018-10-05T20:22:00.757Z,7.20
2018-10-05T20:26:05.103Z,7.20
2018-10-05T20:30:09.876Z,7.10
2018-10-05T20:34:14.660Z,7.10
2018-10-05T20:38:18.916Z,7.00
2018-10-05T20:42:23.111Z,7.00
2018-10-05T20:46:27.456Z,6.90
2018-10-05T20:50:31.692Z,6.90
2018-10-05T20:54:35.991Z,6.80
2018-10-05T20:58:40.212Z,6.80
2018-10-05T21:02:44.584Z,6.80
2018-10-05T21:06:48.808Z,6.90
2018-10-05T21:10:53.191Z,6.80
2018-10-05T21:14:57.479Z,6.80
2018-10-05T21:19:01.860Z,6.70
2018-10-05T21:23:06.083Z,6.70
2018-10-05T21:27:10.430Z,6.70
2018-10-05T21:31:14.804Z,6.60
2018-10-05T21:35:19.172Z,6.60
2018-10-05T21:39:23.419Z,6.60
2018-10-05T21:43:27.693Z,6.50
2018-10-05T21:47:31.951Z,6.50
2018-10-05T21:51:36.252Z,6.50
2018-10-05T21:55:40.500Z,6.50
2018-10-05T21:59:44.727Z,6.50
2018-10-05T22:03:49.516Z,6.50
2018-10-05T22:07:53.821Z,6.40
2018-10-05T22:11:58.356Z,6.30
2018-10-05T22:16:02.679Z,6.30
2018-10-05T22:20:06.987Z,6.30
2018-10-05T22:24:11.195Z,6.20
2018-10-05T22:28:15.687Z,6.20
2018-10-05T22:32:19.966Z,6.20
2018-10-05T22:36:24.652Z,6.20
2018-10-05T22:40:28.910Z,6.20
2018-10-05T22:44:33.430Z,6.10
2018-10-05T22:48:37.662Z,6.10
2018-10-05T22:52:42.221Z,6.10
2018-10-05T22:56:46.449Z,6.00
2018-10-05T23:00:50.691Z,6.10
2018-10-05T23:04:54.907Z,6.00
2018-10-05T23:08:59.489Z,6.00
2018-10-05T23:13:03.721Z,6.00
2018-10-05T23:17:08.149Z,6.00
2018-10-05T23:21:12.378Z,5.90
2018-10-05T23:25:16.867Z,5.90
2018-10-05T23:29:21.095Z,5.90
2018-10-05T23:33:26.552Z,5.90
2018-10-05T23:37:30.768Z,5.90
2018-10-05T23:41:35.104Z,5.90
2018-10-05T23:45:39.362Z,5.90
2018-10-05T23:49:43.627Z,5.90
2018-10-05T23:53:47.853Z,6.00
2018-10-05T23:57:52.087Z,5.90
